Airfield :
LOGIN :

Register | Disclaimer

   EN    FR    IT 

 










Legend :    VFR   Marginal VFR   IFR   Intensive IFR   Very Intensive IFR
Visi :
Ceiling :
>= 8 km
>= 3000ft
5 to 8 km
1000 to 3000 ft
1500m to 5 km
500 to 1000 ft
800 to 1500m
200 to 500 ft
< 800m
< 200 ft
Symbols :   Thunderstorms  Fog  Heavy snow  Heavy precipitations  Wind > 20 kt
SIGMETs :     Misc.  Thunderstorms  Icing  Turbulence  Mountain Waves  Volcanic Ashes






- Airport Elevation : 348 ft
- IATA code : STN


EGSS - London Stansted

CURRENT METAR :
  • 281150Z AUTO 16015KT 9999 -RA BKN009/// OVC014/// //////TCU 05/04 Q1005

EXPIRED METARs :
  • 281120Z AUTO 16016KT 9000 -RA OVC010/// //////TCU 05/03 Q1006
  • 281050Z AUTO 16016KT 9000 -RA BKN012 OVC022 04/03 Q1007
  • 281020Z AUTO 16012KT 9999 -RA BKN014 OVC035 04/03 Q1008
  • 280950Z AUTO 16010KT 9999 -RA SCT018 BKN024 BKN031 03/02 Q1009
  • 280920Z AUTO 16010KT 9999 -RA SCT021 BKN029 BKN034 03/01 Q1010

TAF AMD TAF EGSS
Valid from the 28 at 12:00 until the 29 at 18:00 UTC


281149Z 2812/2918 16014KT 9999 SCT010 BKN020
TEMPO 2812/2910 4500 RADZ BKN006
TEMPO 2812/2815 16018G28KT
BECMG 2814/2817 22015KT
TEMPO 2815/2903 21018G30KT
BECMG 2903/2906 20022G35KT
PROB30
TEMPO 2907/2910 1400 +RA
BECMG 2908/2910 26016G26KT
PROB30
TEMPO 2910/2918 7000 SHRA BKN014
ATIS : +44 1279 669 325



MET'MAP, your aeronautical weather chart ! - Copyright ORBIFLY December 2007 - Disclaimer

ORBIFLY MET'MAP TEAM :

Programming & Development : Alexandra Zaïnal
Concept & original design : Baudouin d'Aumeries
Assistance for programming : Marc-Olivier Méhu
Technical & hardware support : Manuel Goepfert

Contact : metmap@orbifly.com




SOURCES & CREDITS :

   NOAA